WADD/DPS METAR and TAF weather

Enter ICAO airport designator
Station Type Date Time Source
WADD METAR 2021/06/22 23:30 UTC NOAA

WADD 222330Z 06005KT 9999 SCT017 26/25 Q1012 NOSIG


Station Type Date Time Source
WADD Decoded METAR 2021/06/22 23:30 UTC NOAA

Station name not available
Jun 22, 2021 - 07:30 PM EDT / 2021.06.22 2330 UTC
Wind: from the ENE (060 degrees) at 6 MPH (5 KT):0
Visibility: greater than 7 mile(s):0
Sky conditions: partly cloudy
Temperature: 78 F (26 C)
Dew Point: 77 F (25 C)
Relative Humidity: 94%
Pressure (altimeter): 29.88 in. Hg (1012 hPa)
ob: WADD 222330Z 06005KT 9999 SCT017 26/25 Q1012 NOSIG
cycle: 23

Station Type Date Time Source
WADD TAF 2021/06/22 18:12 UTC NOAA

TAF TAF WADD 221700Z 2218/2318 VRB05KT 9999 SCT016
TEMPO 2300/2304 5000 RA BKN015
BECMG 2305/2306 11010KT

Example: see airport list